sensor_id;sensor_type;location;lat;lon;timestamp;temperature;humidity
15949;DHT22;14848;50.954;6.642;2022-07-17T00:02:06;15.20;99.90
15949;DHT22;14848;50.954;6.642;2022-07-17T00:04:32;15.20;99.90
15949;DHT22;14848;50.954;6.642;2022-07-17T00:06:58;15.30;99.90
15949;DHT22;14848;50.954;6.642;2022-07-17T00:09:24;15.20;99.90
15949;DHT22;14848;50.954;6.642;2022-07-17T00:11:50;15.30;99.90
15949;DHT22;14848;50.954;6.642;2022-07-17T00:14:16;15.20;99.90
15949;DHT22;14848;50.954;6.642;2022-07-17T00:16:41;15.20;99.90
15949;DHT22;14848;50.954;6.642;2022-07-17T00:19:07;15.20;99.90
15949;DHT22;14848;50.954;6.642;2022-07-17T00:21:33;15.20;99.90
15949;DHT22;14848;50.954;6.642;2022-07-17T00:23:58;15.20;99.90
15949;DHT22;14848;50.954;6.642;2022-07-17T00:26:24;15.10;99.90
15949;DHT22;14848;50.954;6.642;2022-07-17T00:28:50;15.10;99.90
15949;DHT22;14848;50.954;6.642;2022-07-17T00:31:16;15.00;99.90
15949;DHT22;14848;50.954;6.642;2022-07-17T00:33:41;14.90;99.90
15949;DHT22;14848;50.954;6.642;2022-07-17T00:36:07;14.80;99.90
15949;DHT22;14848;50.954;6.642;2022-07-17T00:38:33;14.60;99.90
15949;DHT22;14848;50.954;6.642;2022-07-17T00:40:59;14.60;99.90
15949;DHT22;14848;50.954;6.642;2022-07-17T00:43:25;14.50;99.90
15949;DHT22;14848;50.954;6.642;2022-07-17T00:46:00;14.50;99.90
15949;DHT22;14848;50.954;6.642;2022-07-17T00:48:27;14.40;99.90
15949;DHT22;14848;50.954;6.642;2022-07-17T00:50:53;14.30;99.90
15949;DHT22;14848;50.954;6.642;2022-07-17T00:53:20;14.10;99.90
15949;DHT22;14848;50.954;6.642;2022-07-17T00:55:47;14.00;99.90
15949;DHT22;14848;50.954;6.642;2022-07-17T00:58:24;13.90;99.90
15949;DHT22;14848;50.954;6.642;2022-07-17T01:00:52;13.90;99.90
15949;DHT22;14848;50.954;6.642;2022-07-17T01:03:19;13.80;99.90
15949;DHT22;14848;50.954;6.642;2022-07-17T01:05:46;13.80;99.90
15949;DHT22;14848;50.954;6.642;2022-07-17T01:08:12;13.70;99.90
15949;DHT22;14848;50.954;6.642;2022-07-17T01:10:38;13.70;99.90
15949;DHT22;14848;50.954;6.642;2022-07-17T01:13:04;13.70;99.90
15949;DHT22;14848;50.954;6.642;2022-07-17T01:15:31;13.60;99.90
15949;DHT22;14848;50.954;6.642;2022-07-17T01:17:57;13.60;99.90
15949;DHT22;14848;50.954;6.642;2022-07-17T01:20:23;13.60;99.90
15949;DHT22;14848;50.954;6.642;2022-07-17T01:22:50;13.50;99.90
15949;DHT22;14848;50.954;6.642;2022-07-17T01:35:06;13.20;99.90
15949;DHT22;14848;50.954;6.642;2022-07-17T01:37:33;13.20;99.90
15949;DHT22;14848;50.954;6.642;2022-07-17T01:39:58;13.10;99.90
15949;DHT22;14848;50.954;6.642;2022-07-17T01:42:26;13.00;99.90
15949;DHT22;14848;50.954;6.642;2022-07-17T01:44:53;12.90;99.90
15949;DHT22;14848;50.954;6.642;2022-07-17T01:49:51;12.80;99.90
15949;DHT22;14848;50.954;6.642;2022-07-17T01:52:17;12.80;99.90
15949;DHT22;14848;50.954;6.642;2022-07-17T01:54:44;12.80;99.90
15949;DHT22;14848;50.954;6.642;2022-07-17T01:57:10;12.80;99.90
15949;DHT22;14848;50.954;6.642;2022-07-17T02:02:04;12.70;99.90
15949;DHT22;14848;50.954;6.642;2022-07-17T02:04:37;12.70;99.90
15949;DHT22;14848;50.954;6.642;2022-07-17T02:07:04;12.70;99.90
15949;DHT22;14848;50.954;6.642;2022-07-17T02:09:30;12.70;99.90
15949;DHT22;14848;50.954;6.642;2022-07-17T02:11:56;12.70;99.90
15949;DHT22;14848;50.954;6.642;2022-07-17T02:14:22;12.60;99.90
15949;DHT22;14848;50.954;6.642;2022-07-17T02:16:48;12.50;99.90
15949;DHT22;14848;50.954;6.642;2022-07-17T02:19:14;12.50;99.90
15949;DHT22;14848;50.954;6.642;2022-07-17T02:21:40;12.40;99.90
15949;DHT22;14848;50.954;6.642;2022-07-17T02:24:06;12.40;99.90
15949;DHT22;14848;50.954;6.642;2022-07-17T02:26:32;12.40;99.90
15949;DHT22;14848;50.954;6.642;2022-07-17T02:28:57;12.40;99.90
15949;DHT22;14848;50.954;6.642;2022-07-17T02:31:23;12.40;99.90
15949;DHT22;14848;50.954;6.642;2022-07-17T02:33:49;12.50;99.90
15949;DHT22;14848;50.954;6.642;2022-07-17T02:36:15;12.40;99.90
15949;DHT22;14848;50.954;6.642;2022-07-17T02:38:41;12.40;99.90
15949;DHT22;14848;50.954;6.642;2022-07-17T02:41:07;12.30;99.90
15949;DHT22;14848;50.954;6.642;2022-07-17T02:43:33;12.30;99.90
15949;DHT22;14848;50.954;6.642;2022-07-17T02:46:00;12.20;99.90
15949;DHT22;14848;50.954;6.642;2022-07-17T03:10:21;12.00;99.90
15949;DHT22;14848;50.954;6.642;2022-07-17T03:12:48;11.90;99.90
15949;DHT22;14848;50.954;6.642;2022-07-17T03:15:14;11.90;99.90
15949;DHT22;14848;50.954;6.642;2022-07-17T03:22:32;11.70;99.90
15949;DHT22;14848;50.954;6.642;2022-07-17T03:24:58;11.70;99.90
15949;DHT22;14848;50.954;6.642;2022-07-17T03:27:24;11.70;99.90
15949;DHT22;14848;50.954;6.642;2022-07-17T03:29:50;11.60;99.90
15949;DHT22;14848;50.954;6.642;2022-07-17T03:44:26;11.50;99.90
15949;DHT22;14848;50.954;6.642;2022-07-17T03:46:52;11.50;99.90
15949;DHT22;14848;50.954;6.642;2022-07-17T03:49:18;11.50;99.90
15949;DHT22;14848;50.954;6.642;2022-07-17T03:51:43;11.40;99.90
15949;DHT22;14848;50.954;6.642;2022-07-17T03:54:09;11.40;99.90
15949;DHT22;14848;50.954;6.642;2022-07-17T03:56:35;11.40;99.90
15949;DHT22;14848;50.954;6.642;2022-07-17T03:59:01;11.50;99.90
15949;DHT22;14848;50.954;6.642;2022-07-17T04:01:26;11.50;99.90
15949;DHT22;14848;50.954;6.642;2022-07-17T04:03:52;11.50;99.90
15949;DHT22;14848;50.954;6.642;2022-07-17T04:06:18;11.50;99.90
15949;DHT22;14848;50.954;6.642;2022-07-17T04:08:43;11.60;99.90
15949;DHT22;14848;50.954;6.642;2022-07-17T04:11:09;11.60;99.90
15949;DHT22;14848;50.954;6.642;2022-07-17T04:13:35;11.70;99.90
15949;DHT22;14848;50.954;6.642;2022-07-17T04:18:29;11.60;99.90
15949;DHT22;14848;50.954;6.642;2022-07-17T04:20:59;11.60;99.90
15949;DHT22;14848;50.954;6.642;2022-07-17T04:23:25;11.60;99.90
15949;DHT22;14848;50.954;6.642;2022-07-17T04:25:52;11.60;99.90
15949;DHT22;14848;50.954;6.642;2022-07-17T04:28:18;11.70;99.90
15949;DHT22;14848;50.954;6.642;2022-07-17T04:30:44;11.80;99.90
15949;DHT22;14848;50.954;6.642;2022-07-17T04:33:10;11.80;99.90
15949;DHT22;14848;50.954;6.642;2022-07-17T04:35:36;11.90;99.90
15949;DHT22;14848;50.954;6.642;2022-07-17T04:38:03;12.00;99.90
15949;DHT22;14848;50.954;6.642;2022-07-17T04:40:30;11.90;99.90
15949;DHT22;14848;50.954;6.642;2022-07-17T04:42:56;12.80;99.90
15949;DHT22;14848;50.954;6.642;2022-07-17T04:45:21;13.40;99.90
15949;DHT22;14848;50.954;6.642;2022-07-17T04:47:47;14.20;99.90
15949;DHT22;14848;50.954;6.642;2022-07-17T04:50:13;15.10;99.90
15949;DHT22;14848;50.954;6.642;2022-07-17T04:52:38;16.00;99.90
15949;DHT22;14848;50.954;6.642;2022-07-17T04:55:04;17.00;99.90
15949;DHT22;14848;50.954;6.642;2022-07-17T04:57:30;17.90;99.90
15949;DHT22;14848;50.954;6.642;2022-07-17T04:59:56;18.90;99.90
15949;DHT22;14848;50.954;6.642;2022-07-17T05:02:22;19.50;99.90
15949;DHT22;14848;50.954;6.642;2022-07-17T05:04:48;19.70;99.90
15949;DHT22;14848;50.954;6.642;2022-07-17T05:36:27;20.30;99.90
15949;DHT22;14848;50.954;6.642;2022-07-17T21:52:31;19.30;99.90
15949;DHT22;14848;50.954;6.642;2022-07-17T21:54:56;19.30;99.90
15949;DHT22;14848;50.954;6.642;2022-07-17T21:57:23;19.30;99.90
15949;DHT22;14848;50.954;6.642;2022-07-17T21:59:49;19.30;99.90
15949;DHT22;14848;50.954;6.642;2022-07-17T22:02:15;19.20;99.90
15949;DHT22;14848;50.954;6.642;2022-07-17T22:04:41;19.20;99.90
15949;DHT22;14848;50.954;6.642;2022-07-17T22:07:07;19.20;99.90
15949;DHT22;14848;50.954;6.642;2022-07-17T22:09:33;19.20;99.90
15949;DHT22;14848;50.954;6.642;2022-07-17T22:12:00;19.20;99.90
15949;DHT22;14848;50.954;6.642;2022-07-17T22:14:26;19.20;99.90
15949;DHT22;14848;50.954;6.642;2022-07-17T22:16:52;19.20;99.90
15949;DHT22;14848;50.954;6.642;2022-07-17T22:19:18;19.10;99.90
15949;DHT22;14848;50.954;6.642;2022-07-17T22:21:44;19.10;99.90
15949;DHT22;14848;50.954;6.642;2022-07-17T22:24:10;19.00;99.90
15949;DHT22;14848;50.954;6.642;2022-07-17T22:26:36;19.00;99.90
15949;DHT22;14848;50.954;6.642;2022-07-17T22:48:33;19.10;99.90
15949;DHT22;14848;50.954;6.642;2022-07-17T22:58:16;18.70;99.90
15949;DHT22;14848;50.954;6.642;2022-07-17T23:00:42;18.70;99.90
15949;DHT22;14848;50.954;6.642;2022-07-17T23:03:08;18.70;99.90
15949;DHT22;14848;50.954;6.642;2022-07-17T23:05:34;18.60;99.90
15949;DHT22;14848;50.954;6.642;2022-07-17T23:08:00;18.50;99.90
15949;DHT22;14848;50.954;6.642;2022-07-17T23:10:26;18.50;99.90
15949;DHT22;14848;50.954;6.642;2022-07-17T23:12:52;18.40;99.90
15949;DHT22;14848;50.954;6.642;2022-07-17T23:15:18;18.30;99.90
15949;DHT22;14848;50.954;6.642;2022-07-17T23:17:43;18.30;99.90
15949;DHT22;14848;50.954;6.642;2022-07-17T23:20:09;18.10;99.90
15949;DHT22;14848;50.954;6.642;2022-07-17T23:22:35;18.20;99.90
15949;DHT22;14848;50.954;6.642;2022-07-17T23:25:02;18.20;99.90
15949;DHT22;14848;50.954;6.642;2022-07-17T23:27:28;18.10;99.90
15949;DHT22;14848;50.954;6.642;2022-07-17T23:29:54;18.00;99.90
15949;DHT22;14848;50.954;6.642;2022-07-17T23:32:19;18.00;99.90
15949;DHT22;14848;50.954;6.642;2022-07-17T23:35:01;18.00;99.90
15949;DHT22;14848;50.954;6.642;2022-07-17T23:37:29;17.70;99.90
15949;DHT22;14848;50.954;6.642;2022-07-17T23:42:21;17.90;99.90
15949;DHT22;14848;50.954;6.642;2022-07-17T23:44:47;17.80;99.90
15949;DHT22;14848;50.954;6.642;2022-07-17T23:47:14;17.80;99.90
15949;DHT22;14848;50.954;6.642;2022-07-17T23:49:40;17.80;99.90
15949;DHT22;14848;50.954;6.642;2022-07-17T23:52:05;17.70;99.90
15949;DHT22;14848;50.954;6.642;2022-07-17T23:54:32;17.70;99.90
15949;DHT22;14848;50.954;6.642;2022-07-17T23:56:57;17.80;99.90
15949;DHT22;14848;50.954;6.642;2022-07-17T23:59:28;17.70;99.90
